createdAt,value
2018-03-31T00:01:36.390Z,25.55
2018-03-31T00:04:05.609Z,28.37
2018-03-31T00:06:35.015Z,25.77
2018-03-31T00:09:06.575Z,28.67
2018-03-31T00:11:36.432Z,22.63
2018-03-31T00:14:03.667Z,22.33
2018-03-31T00:16:31.001Z,22.03
2018-03-31T00:18:59.097Z,25.10
2018-03-31T00:21:26.222Z,32.10
2018-03-31T00:23:53.369Z,26.90
2018-03-31T00:26:20.984Z,28.47
2018-03-31T00:28:47.996Z,29.70
2018-03-31T00:31:16.589Z,19.50
2018-03-31T00:33:44.087Z,26.98
2018-03-31T00:36:11.872Z,20.23
2018-03-31T00:38:39.588Z,25.55
2018-03-31T00:41:06.571Z,26.07
2018-03-31T00:43:33.895Z,23.90
2018-03-31T00:46:01.328Z,22.17
2018-03-31T00:48:29.275Z,21.60
2018-03-31T00:50:56.336Z,24.47
2018-03-31T00:53:23.751Z,18.65
2018-03-31T00:55:50.740Z,20.80
2018-03-31T00:58:20.493Z,14.80
2018-03-31T01:00:48.054Z,15.83
2018-03-31T01:03:15.538Z,19.57
2018-03-31T01:05:43.601Z,24.37
2018-03-31T01:08:10.607Z,21.23
2018-03-31T01:10:37.742Z,22.23
2018-03-31T01:13:04.776Z,16.63
2018-03-31T01:15:32.684Z,19.73
2018-03-31T01:17:59.942Z,17.33
2018-03-31T01:20:27.467Z,19.10
2018-03-31T01:22:54.531Z,16.95
2018-03-31T01:25:21.564Z,18.17
2018-03-31T01:27:48.548Z,17.37
2018-03-31T01:30:15.569Z,15.77
2018-03-31T01:32:42.619Z,15.17
2018-03-31T01:35:09.638Z,18.45
2018-03-31T01:37:36.634Z,19.40
2018-03-31T01:40:03.648Z,22.73
2018-03-31T01:42:30.632Z,20.47
2018-03-31T01:44:57.656Z,23.80
2018-03-31T01:47:24.654Z,21.15
2018-03-31T01:49:51.694Z,19.10
2018-03-31T01:52:18.674Z,31.03
2018-03-31T01:54:45.697Z,30.57
2018-03-31T01:57:12.688Z,18.47
2018-03-31T01:59:39.738Z,18.50
2018-03-31T02:02:06.815Z,23.77
2018-03-31T02:04:33.849Z,24.57
2018-03-31T02:07:00.849Z,25.40
2018-03-31T02:09:27.872Z,21.70
2018-03-31T02:11:54.865Z,18.40
2018-03-31T02:14:21.888Z,31.93
2018-03-31T02:16:48.876Z,18.47
2018-03-31T02:19:15.910Z,23.70
2018-03-31T02:21:42.894Z,19.77
2018-03-31T02:24:09.925Z,29.63
2018-03-31T02:26:36.922Z,19.45
2018-03-31T02:29:03.920Z,24.50
2018-03-31T02:31:30.943Z,20.93
2018-03-31T02:33:57.985Z,24.83
2018-03-31T02:36:24.986Z,19.33
2018-03-31T02:38:51.972Z,18.33
2018-03-31T02:41:18.999Z,40.50
2018-03-31T02:43:45.992Z,29.43
2018-03-31T02:46:13.012Z,25.02
2018-03-31T02:48:40.004Z,15.20
2018-03-31T02:51:07.020Z,13.53
2018-03-31T02:53:34.002Z,15.13
2018-03-31T02:56:01.016Z,19.13
2018-03-31T02:58:28.068Z,22.77
2018-03-31T03:00:55.101Z,20.33
2018-03-31T03:03:22.082Z,24.10
2018-03-31T03:05:49.943Z,19.73
2018-03-31T03:08:16.961Z,18.50
2018-03-31T03:10:44.061Z,31.03
2018-03-31T03:13:11.041Z,23.23
2018-03-31T03:15:38.143Z,22.15
2018-03-31T03:18:05.131Z,17.73
2018-03-31T03:20:32.148Z,21.10
2018-03-31T03:22:59.140Z,18.67
2018-03-31T03:25:26.163Z,29.83
2018-03-31T03:27:53.148Z,77.23
2018-03-31T03:30:20.169Z,40.70
2018-03-31T03:32:47.156Z,38.33
2018-03-31T03:35:14.181Z,55.87
2018-03-31T03:37:41.214Z,97.25
2018-03-31T03:40:08.240Z,65.85
2018-03-31T03:42:35.233Z,162.60
2018-03-31T03:45:02.259Z,80.13
2018-03-31T03:47:29.244Z,30.77
2018-03-31T03:49:56.270Z,50.53
2018-03-31T03:52:23.335Z,34.40
2018-03-31T03:54:50.381Z,22.70
2018-03-31T03:57:17.397Z,17.97
2018-03-31T03:59:44.386Z,15.50
2018-03-31T04:02:11.406Z,16.33
2018-03-31T04:04:38.397Z,16.23
2018-03-31T04:07:05.447Z,16.67
2018-03-31T04:09:32.432Z,21.67
2018-03-31T04:11:59.505Z,20.03
2018-03-31T04:14:26.493Z,19.07
2018-03-31T04:16:53.520Z,19.07
2018-03-31T04:19:20.517Z,20.10
2018-03-31T04:21:47.538Z,25.43
2018-03-31T04:24:14.516Z,22.50
2018-03-31T04:26:41.524Z,33.17
2018-03-31T04:29:08.498Z,33.23
2018-03-31T04:31:35.523Z,29.25
2018-03-31T04:34:02.508Z,34.23
2018-03-31T04:36:29.533Z,70.72
2018-03-31T04:38:56.588Z,31.33
2018-03-31T04:41:23.601Z,32.10
2018-03-31T04:43:50.592Z,29.93
2018-03-31T04:46:17.609Z,19.90
2018-03-31T04:48:44.612Z,27.23
2018-03-31T04:51:11.648Z,19.43
2018-03-31T04:53:38.655Z,31.50
2018-03-31T04:56:05.675Z,36.53
2018-03-31T04:58:32.675Z,85.57
2018-03-31T05:00:59.692Z,345.50
2018-03-31T05:03:26.690Z,44.57
2018-03-31T05:05:53.828Z,137.40
2018-03-31T05:08:20.819Z,54.33
2018-03-31T05:10:47.833Z,39.27
2018-03-31T05:13:14.830Z,39.00
2018-03-31T05:15:41.819Z,40.53
2018-03-31T05:18:08.849Z,40.70
2018-03-31T05:20:35.845Z,65.00
2018-03-31T05:23:02.955Z,192.53
2018-03-31T05:25:29.968Z,52.67
2018-03-31T05:27:57.011Z,54.67
2018-03-31T05:30:24.041Z,51.83
2018-03-31T05:32:51.052Z,50.50
2018-03-31T05:35:18.035Z,34.70
2018-03-31T05:37:45.062Z,318.43
2018-03-31T05:40:12.055Z,177.20
2018-03-31T05:42:39.081Z,204.30
2018-03-31T05:45:06.090Z,125.80
2018-03-31T05:47:33.121Z,112.83
2018-03-31T05:50:00.170Z,61.13
2018-03-31T05:52:27.204Z,103.10
2018-03-31T05:54:54.199Z,170.63
2018-03-31T05:57:21.211Z,38.60
2018-03-31T05:59:48.192Z,55.27
2018-03-31T06:02:15.220Z,35.73
2018-03-31T06:04:42.227Z,32.53
2018-03-31T06:07:09.249Z,57.73
2018-03-31T06:09:36.245Z,61.53
2018-03-31T06:12:03.266Z,47.43
2018-03-31T06:14:30.255Z,66.07
2018-03-31T06:16:57.285Z,55.37
2018-03-31T06:19:24.282Z,52.07
2018-03-31T06:21:51.308Z,75.87
2018-03-31T06:24:18.307Z,151.53
2018-03-31T06:26:45.351Z,73.83
2018-03-31T06:29:12.358Z,97.60
2018-03-31T06:31:39.400Z,58.60
2018-03-31T06:34:06.411Z,48.17
2018-03-31T06:36:33.554Z,52.83
2018-03-31T06:39:00.543Z,85.60
2018-03-31T06:41:28.261Z,57.60
2018-03-31T06:43:56.459Z,92.77
2018-03-31T06:46:23.436Z,48.47
2018-03-31T06:48:50.444Z,50.97
2018-03-31T06:51:17.537Z,45.30
2018-03-31T06:53:44.585Z,49.73
2018-03-31T06:56:11.608Z,46.37
2018-03-31T06:58:38.615Z,47.90
2018-03-31T07:01:06.001Z,50.38
2018-03-31T07:03:33.021Z,49.33
2018-03-31T07:06:00.025Z,55.70
2018-03-31T07:08:27.123Z,48.53
2018-03-31T07:10:54.192Z,42.80
2018-03-31T07:13:21.288Z,48.43
2018-03-31T07:15:48.467Z,45.37
2018-03-31T07:18:15.489Z,45.53
2018-03-31T07:20:42.469Z,50.17
2018-03-31T07:23:09.570Z,47.07
2018-03-31T07:25:36.709Z,43.10
2018-03-31T07:28:04.021Z,52.00
2018-03-31T07:30:31.021Z,44.38
2018-03-31T07:33:05.269Z,51.70
2018-03-31T07:35:40.024Z,43.60
2018-03-31T07:38:11.408Z,57.72
2018-03-31T07:40:44.019Z,47.13
2018-03-31T07:43:11.258Z,63.95
2018-03-31T07:45:42.308Z,65.90
2018-03-31T07:48:13.886Z,65.97
2018-03-31T07:50:41.489Z,64.67
2018-03-31T07:53:08.702Z,75.80
2018-03-31T07:55:35.736Z,64.43
2018-03-31T07:58:02.763Z,81.97
2018-03-31T08:00:29.763Z,93.07
2018-03-31T08:02:56.925Z,64.37
2018-03-31T08:05:23.929Z,66.33
2018-03-31T08:07:51.160Z,71.55
2018-03-31T08:10:18.181Z,67.20
2018-03-31T08:12:45.543Z,71.93
2018-03-31T08:15:12.605Z,78.20
2018-03-31T08:17:39.896Z,70.37
2018-03-31T08:20:07.697Z,59.20
2018-03-31T08:22:35.014Z,63.60
2018-03-31T08:25:02.115Z,61.57
2018-03-31T08:27:29.144Z,53.20
2018-03-31T08:29:56.222Z,54.87
2018-03-31T08:32:23.643Z,58.87
2018-03-31T08:34:50.683Z,68.30
2018-03-31T08:37:18.376Z,67.00
2018-03-31T08:39:47.483Z,52.77
2018-03-31T08:42:14.733Z,58.03
2018-03-31T08:44:41.761Z,49.23
2018-03-31T08:47:08.774Z,44.70
2018-03-31T08:49:37.822Z,46.67
2018-03-31T08:52:04.941Z,46.93
2018-03-31T08:54:32.090Z,49.47
2018-03-31T08:56:59.815Z,48.70
2018-03-31T08:59:26.897Z,48.77
2018-03-31T09:01:53.964Z,51.40
2018-03-31T09:04:22.541Z,44.87
2018-03-31T09:06:49.547Z,46.87
2018-03-31T09:09:16.713Z,43.60
2018-03-31T09:11:43.686Z,44.13
2018-03-31T09:14:10.894Z,45.27
2018-03-31T09:16:38.377Z,43.28
2018-03-31T09:19:05.376Z,47.13
2018-03-31T09:21:32.399Z,42.47
2018-03-31T09:24:00.542Z,43.43
2018-03-31T09:26:28.004Z,42.73
2018-03-31T09:28:55.122Z,38.40
2018-03-31T09:31:22.112Z,40.03
2018-03-31T09:33:49.134Z,38.20
2018-03-31T09:36:16.116Z,36.17
2018-03-31T09:38:43.166Z,40.67
2018-03-31T09:41:10.166Z,42.83
2018-03-31T09:43:37.572Z,50.70
2018-03-31T09:46:04.800Z,51.70
2018-03-31T09:48:31.973Z,36.23
2018-03-31T09:50:58.972Z,39.07
2018-03-31T09:53:26.008Z,37.20
2018-03-31T09:55:53.032Z,39.37
2018-03-31T09:58:20.345Z,44.97
2018-03-31T10:00:50.336Z,40.17
2018-03-31T10:03:19.908Z,40.07
2018-03-31T10:05:50.053Z,46.80
2018-03-31T10:08:19.537Z,41.50
2018-03-31T10:10:46.932Z,42.10
2018-03-31T10:13:13.989Z,76.43
2018-03-31T10:15:40.993Z,51.13
2018-03-31T10:18:08.564Z,39.13
2018-03-31T10:20:35.575Z,39.80
2018-03-31T10:23:02.551Z,38.10
2018-03-31T10:25:29.588Z,42.27
2018-03-31T10:27:56.761Z,41.83
2018-03-31T10:30:23.828Z,34.65
2018-03-31T10:32:52.287Z,33.03
2018-03-31T10:35:19.505Z,29.27
2018-03-31T10:37:48.277Z,35.25
2018-03-31T10:40:15.420Z,40.03
2018-03-31T10:42:42.526Z,43.10
2018-03-31T10:45:09.661Z,42.77
2018-03-31T10:47:37.147Z,42.87
2018-03-31T10:50:04.401Z,44.10
2018-03-31T10:52:31.384Z,44.30
2018-03-31T10:54:58.403Z,37.33
2018-03-31T10:57:25.530Z,37.77
2018-03-31T10:59:52.569Z,33.85
2018-03-31T11:02:21.909Z,33.73
2018-03-31T11:04:49.204Z,39.13
2018-03-31T11:07:16.202Z,51.77
2018-03-31T11:09:43.252Z,49.37
2018-03-31T11:12:10.245Z,45.23
2018-03-31T11:14:37.282Z,50.27
2018-03-31T11:17:04.305Z,35.23
2018-03-31T11:19:31.334Z,41.57
2018-03-31T11:21:58.705Z,40.23
2018-03-31T11:24:25.841Z,34.95
2018-03-31T11:26:52.828Z,35.43
2018-03-31T11:29:20.200Z,30.50
2018-03-31T11:31:47.240Z,29.83
2018-03-31T11:34:14.338Z,33.23
2018-03-31T11:36:41.678Z,34.33
2018-03-31T11:39:08.748Z,36.10
2018-03-31T11:41:35.759Z,37.07
2018-03-31T11:44:03.192Z,31.37
2018-03-31T11:46:30.309Z,26.13
2018-03-31T11:48:57.376Z,22.50
2018-03-31T11:51:24.759Z,28.30
2018-03-31T11:53:52.291Z,22.07
2018-03-31T11:56:19.707Z,18.27
2018-03-31T11:58:48.418Z,13.43
2018-03-31T12:01:15.570Z,9.63
2018-03-31T12:03:43.084Z,8.48
2018-03-31T12:06:10.191Z,18.80
2018-03-31T12:08:37.196Z,38.40
2018-03-31T12:11:04.236Z,13.97
2018-03-31T12:13:31.235Z,13.33
2018-03-31T12:15:58.293Z,8.43
2018-03-31T12:18:25.657Z,5.80
2018-03-31T12:20:52.680Z,7.77
2018-03-31T12:23:20.294Z,8.47
2018-03-31T12:25:47.400Z,6.93
2018-03-31T12:28:15.093Z,4.80
2018-03-31T12:30:42.819Z,5.85
2018-03-31T12:33:09.814Z,6.67
2018-03-31T12:35:36.439Z,7.47
2018-03-31T12:38:03.630Z,9.30
2018-03-31T12:40:30.687Z,8.52
2018-03-31T12:42:57.733Z,9.03
2018-03-31T12:45:25.008Z,6.43
2018-03-31T12:47:51.998Z,6.97
2018-03-31T12:50:19.044Z,7.77
2018-03-31T12:52:46.044Z,8.77
2018-03-31T12:55:13.188Z,10.00
2018-03-31T12:57:40.380Z,8.97
2018-03-31T13:00:07.838Z,8.37
2018-03-31T13:02:34.848Z,11.43
2018-03-31T13:05:03.538Z,10.73
2018-03-31T13:07:30.550Z,12.33
2018-03-31T13:09:57.576Z,10.57
2018-03-31T13:12:24.568Z,11.47
2018-03-31T13:14:51.602Z,18.27
2018-03-31T13:17:18.617Z,10.10
2018-03-31T13:19:45.666Z,8.93
2018-03-31T13:22:12.949Z,6.72
2018-03-31T13:24:40.322Z,9.30
2018-03-31T13:27:07.421Z,8.30
2018-03-31T13:29:34.481Z,5.73
2018-03-31T13:32:02.503Z,5.53
2018-03-31T13:34:29.605Z,8.27
2018-03-31T13:36:58.160Z,5.43
2018-03-31T13:39:25.548Z,4.70
2018-03-31T13:41:52.832Z,4.15
2018-03-31T13:44:19.902Z,5.87
2018-03-31T13:46:48.859Z,5.40
2018-03-31T13:49:16.300Z,4.67
2018-03-31T13:51:43.328Z,3.20
2018-03-31T13:54:10.309Z,4.17
2018-03-31T13:56:37.608Z,4.77
2018-03-31T13:59:06.282Z,6.77
2018-03-31T14:01:33.317Z,5.67
2018-03-31T14:04:00.308Z,5.90
2018-03-31T14:06:27.334Z,7.67
2018-03-31T14:08:54.476Z,5.20
2018-03-31T14:11:21.983Z,5.07
2018-03-31T14:13:50.521Z,4.77
2018-03-31T14:16:17.564Z,5.00
2018-03-31T14:18:44.896Z,4.13
2018-03-31T14:21:12.882Z,4.73
2018-03-31T14:23:41.385Z,7.10
2018-03-31T14:26:08.844Z,6.60
2018-03-31T14:28:37.488Z,3.37
2018-03-31T14:31:04.598Z,3.60
2018-03-31T14:33:31.736Z,2.90
2018-03-31T14:36:00.231Z,2.67
2018-03-31T14:38:29.274Z,2.47
2018-03-31T14:40:59.158Z,2.58
2018-03-31T14:43:27.030Z,2.87
2018-03-31T14:45:55.101Z,3.03
2018-03-31T14:48:22.625Z,2.53
2018-03-31T14:50:53.098Z,3.03
2018-03-31T14:53:24.828Z,4.07
2018-03-31T14:55:52.461Z,4.73
2018-03-31T14:58:21.861Z,2.83
2018-03-31T15:00:50.411Z,3.17
2018-03-31T15:03:18.947Z,2.97
2018-03-31T15:05:48.028Z,4.40
2018-03-31T15:08:15.226Z,3.47
2018-03-31T15:10:44.513Z,4.80
2018-03-31T15:13:12.610Z,46.90
2018-03-31T15:15:40.340Z,2.97
2018-03-31T15:18:08.302Z,6.10
2018-03-31T15:20:36.480Z,13.83
2018-03-31T15:23:04.430Z,36.30
2018-03-31T15:25:32.712Z,22.37
2018-03-31T15:28:00.348Z,1.85
2018-03-31T15:30:30.360Z,5.95
2018-03-31T15:32:58.813Z,6.53
2018-03-31T15:35:27.690Z,4.65
2018-03-31T15:37:56.190Z,4.93
2018-03-31T15:40:24.593Z,3.90
2018-03-31T15:42:51.733Z,1.62
2018-03-31T15:45:20.902Z,1.40
2018-03-31T15:47:50.477Z,1.67
2018-03-31T15:50:18.962Z,4.27
2018-03-31T15:52:47.359Z,1.37
2018-03-31T15:55:16.759Z,1.50
2018-03-31T15:57:46.491Z,0.90
2018-03-31T16:00:17.226Z,2.40
2018-03-31T16:02:45.440Z,1.70
2018-03-31T16:05:12.622Z,2.03
2018-03-31T16:07:40.652Z,1.40
2018-03-31T16:10:08.478Z,1.43
2018-03-31T16:12:36.660Z,3.45
2018-03-31T16:15:05.027Z,3.73
2018-03-31T16:17:34.875Z,1.40
2018-03-31T16:20:02.442Z,4.53
2018-03-31T16:22:29.476Z,2.93
2018-03-31T16:24:56.840Z,1.97
2018-03-31T16:27:24.737Z,1.47
2018-03-31T16:29:53.471Z,3.33
2018-03-31T16:32:21.641Z,1.20
2018-03-31T16:34:49.438Z,1.40
2018-03-31T16:37:16.590Z,1.00
2018-03-31T16:39:43.576Z,1.90
2018-03-31T16:42:10.604Z,1.50
2018-03-31T16:44:37.607Z,2.10
2018-03-31T16:47:04.629Z,0.93
2018-03-31T16:49:32.960Z,1.50
2018-03-31T16:52:01.277Z,1.87
2018-03-31T16:54:28.288Z,4.37
2018-03-31T16:56:58.263Z,1.70
2018-03-31T16:59:26.414Z,2.13
2018-03-31T17:01:53.467Z,2.00
2018-03-31T17:04:23.250Z,1.52
2018-03-31T17:06:52.003Z,2.73
2018-03-31T17:09:20.553Z,1.70
2018-03-31T17:11:51.235Z,1.90
2018-03-31T17:14:21.144Z,1.83
2018-03-31T17:16:50.388Z,1.50
2018-03-31T17:19:21.680Z,1.53
2018-03-31T17:21:51.930Z,1.77
2018-03-31T17:24:20.788Z,1.47
2018-03-31T17:26:49.772Z,1.63
2018-03-31T17:29:18.423Z,3.33
2018-03-31T17:31:46.936Z,1.40
2018-03-31T17:34:14.266Z,1.90
2018-03-31T17:36:44.175Z,2.27
2018-03-31T17:39:16.405Z,2.00
2018-03-31T17:41:43.580Z,2.87
2018-03-31T17:44:18.254Z,2.97
2018-03-31T17:46:46.512Z,5.50
2018-03-31T17:49:15.743Z,2.50
2018-03-31T17:51:48.352Z,3.73
2018-03-31T17:54:20.221Z,2.22
2018-03-31T17:56:52.082Z,2.83
2018-03-31T17:59:19.474Z,3.15
2018-03-31T18:01:50.571Z,3.17
2018-03-31T18:04:18.489Z,2.80
2018-03-31T18:06:48.148Z,4.25
2018-03-31T18:09:16.686Z,2.72
2018-03-31T18:11:49.241Z,2.53
2018-03-31T18:14:18.809Z,3.20
2018-03-31T18:16:46.347Z,3.65
2018-03-31T18:19:14.489Z,2.67
2018-03-31T18:21:41.530Z,2.07
2018-03-31T18:24:08.620Z,2.00
2018-03-31T18:26:35.613Z,3.57
2018-03-31T18:29:02.651Z,3.53
2018-03-31T18:31:29.682Z,2.60
2018-03-31T18:33:56.688Z,2.63
2018-03-31T18:36:23.670Z,5.50
2018-03-31T18:38:51.149Z,3.25
2018-03-31T18:41:18.462Z,3.27
2018-03-31T18:43:45.519Z,4.83
2018-03-31T18:46:12.503Z,4.70
2018-03-31T18:48:39.512Z,4.47
2018-03-31T18:51:06.488Z,4.47
2018-03-31T18:53:33.929Z,8.03
2018-03-31T18:56:00.966Z,12.10
2018-03-31T18:58:28.176Z,11.23
2018-03-31T19:00:55.531Z,11.57
2018-03-31T19:03:22.707Z,11.87
2018-03-31T19:05:49.791Z,11.30
2018-03-31T19:08:17.184Z,7.07
2018-03-31T19:10:44.500Z,7.13
2018-03-31T19:13:11.643Z,6.37
2018-03-31T19:15:42.201Z,7.77
2018-03-31T19:18:09.919Z,4.57
2018-03-31T19:20:37.403Z,5.50
2018-03-31T19:23:07.449Z,5.10
2018-03-31T19:25:37.179Z,4.33
2018-03-31T19:28:04.309Z,5.37
2018-03-31T19:30:36.857Z,6.03
2018-03-31T19:33:04.047Z,7.33
2018-03-31T19:35:37.012Z,7.55
2018-03-31T19:38:04.571Z,7.70
2018-03-31T19:40:31.630Z,8.50
2018-03-31T19:42:58.925Z,10.47
2018-03-31T19:45:26.587Z,12.07
2018-03-31T19:47:53.674Z,12.37
2018-03-31T19:50:20.700Z,17.93
2018-03-31T19:52:48.027Z,19.63
2018-03-31T19:55:15.108Z,14.87
2018-03-31T19:57:42.549Z,13.77
2018-03-31T20:00:09.569Z,11.80
2018-03-31T20:02:38.312Z,11.57
2018-03-31T21:31:43.446Z,13.53
2018-03-31T21:34:13.172Z,12.70
2018-03-31T21:36:41.244Z,10.27
2018-03-31T21:39:10.020Z,7.93
2018-03-31T21:41:39.031Z,8.27
2018-03-31T21:44:06.830Z,8.87
2018-03-31T21:46:33.984Z,5.50
2018-03-31T21:49:00.957Z,4.80
2018-03-31T21:51:28.002Z,4.87
2018-03-31T21:53:55.499Z,6.97
2018-03-31T21:56:23.183Z,3.50
2018-03-31T21:58:51.000Z,3.90
2018-03-31T22:01:18.619Z,3.47
2018-03-31T22:03:45.715Z,4.00
2018-03-31T22:06:12.782Z,4.27
2018-03-31T22:08:40.165Z,4.93
2018-03-31T22:11:07.807Z,3.77
2018-03-31T22:13:40.504Z,4.20
2018-03-31T22:16:09.041Z,4.33
2018-03-31T22:18:37.111Z,4.57
2018-03-31T22:21:05.363Z,4.82
2018-03-31T22:23:33.635Z,4.73
2018-03-31T22:26:00.668Z,4.97
2018-03-31T22:28:27.701Z,4.83
2018-03-31T22:30:54.713Z,6.50
2018-03-31T22:33:21.795Z,7.13
2018-03-31T22:35:48.856Z,7.67
2018-03-31T22:38:16.286Z,5.20
2018-03-31T22:40:43.930Z,6.13
2018-03-31T22:43:10.968Z,7.60
2018-03-31T22:45:37.990Z,5.20
2018-03-31T22:48:04.985Z,7.68
2018-03-31T22:50:32.102Z,5.22
2018-03-31T22:53:00.551Z,4.95
2018-03-31T22:55:27.638Z,6.25
2018-03-31T22:57:55.455Z,7.15
2018-03-31T23:00:23.112Z,10.43
2018-03-31T23:02:50.366Z,9.00
2018-03-31T23:05:18.377Z,5.85
2018-03-31T23:07:45.435Z,5.03
2018-03-31T23:10:12.459Z,6.73
2018-03-31T23:12:40.391Z,7.43
2018-03-31T23:15:10.457Z,9.00
2018-03-31T23:17:40.346Z,8.47
2018-03-31T23:20:08.787Z,9.77
2018-03-31T23:22:35.802Z,4.93
2018-03-31T23:25:03.702Z,7.12
2018-03-31T23:27:32.301Z,5.80
2018-03-31T23:30:00.021Z,5.10
2018-03-31T23:32:29.356Z,4.93
2018-03-31T23:34:56.565Z,4.90
2018-03-31T23:37:24.377Z,4.70
2018-03-31T23:39:52.460Z,4.43
2018-03-31T23:42:19.837Z,4.47
2018-03-31T23:44:46.920Z,4.33
2018-03-31T23:47:14.111Z,4.93
2018-03-31T23:49:41.099Z,12.70
2018-03-31T23:52:08.205Z,4.97
2018-03-31T23:54:35.199Z,4.20
2018-03-31T23:57:02.547Z,4.03
2018-03-31T23:59:31.350Z,3.12
